Time;durP1;ratioP1;P1;durP2;ratioP2;P2;SDS_P1;SDS_P2;PMS_P1;PMS_P2;Temp;Humidity;BMP_temperature;BMP_pressure;BME280_temperature;BME280_humidity;BME280_pressure;Samples;Min_cycle;Max_cycle;Signal;HPM_P1;HPM_P2
2021/07/10 00:00:37;;;;;;;0.70;0.70;;;;;;;23.93;40.56;100079.03;4925961;29;20048;-85
2021/07/10 00:03:05;;;;;;;2.08;0.80;;;;;;;24.06;40.43;100078.50;4917744;29;20428;-85
2021/07/10 00:05:34;;;;;;;3.05;0.90;;;;;;;24.00;40.23;100072.03;4924129;29;20118;-85
2021/07/10 00:08:01;;;;;;;2.97;1.42;;;;;;;23.98;40.16;100071.38;4923936;29;20048;-85
2021/07/10 00:10:28;;;;;;;3.35;0.80;;;;;;;23.98;40.60;100066.03;4917142;29;20502;-85
2021/07/10 00:12:55;;;;;;;2.75;1.20;;;;;;;23.96;40.66;100075.19;4917138;29;20044;-84
2021/07/10 00:15:24;;;;;;;0.80;0.80;;;;;;;23.87;40.92;100069.06;4917217;29;20050;-85
2021/07/10 00:17:51;;;;;;;1.98;0.88;;;;;;;23.95;40.60;100077.03;4917733;29;20123;-85
2021/07/10 00:20:19;;;;;;;4.25;0.93;;;;;;;23.86;41.02;100072.69;4917843;29;20080;-83
2021/07/10 00:22:47;;;;;;;1.08;0.70;;;;;;;23.95;40.87;100065.53;4917368;29;20044;-83
2021/07/10 00:25:16;;;;;;;1.13;0.65;;;;;;;23.91;40.12;100073.03;4930336;29;20136;-83
2021/07/10 00:27:45;;;;;;;2.47;0.70;;;;;;;23.89;40.80;100077.69;4917203;29;20048;-83
2021/07/10 00:30:14;;;;;;;4.55;1.15;;;;;;;23.97;41.17;100079.50;4917352;29;20075;-83
2021/07/10 00:32:41;;;;;;;1.15;1.02;;;;;;;23.99;40.31;100069.53;4934912;29;20122;-83
2021/07/10 00:35:08;;;;;;;1.77;0.90;;;;;;;23.95;41.12;100066.38;4921030;29;20495;-83
2021/07/10 00:37:36;;;;;;;0.90;0.70;;;;;;;23.82;40.98;100066.06;4916840;29;20399;-83
2021/07/10 00:40:07;;;;;;;4.15;0.98;;;;;;;23.85;41.15;100068.38;4933435;29;20078;-83
2021/07/10 00:42:35;;;;;;;2.42;0.98;;;;;;;23.82;41.39;100062.56;4935908;29;20055;-83
2021/07/10 00:45:06;;;;;;;5.35;0.80;;;;;;;23.76;41.38;100064.88;4921361;29;20045;-83
2021/07/10 00:47:33;;;;;;;1.88;0.80;;;;;;;23.72;41.36;100058.22;4917054;29;20054;-83
2021/07/10 00:50:00;;;;;;;4.88;1.27;;;;;;;23.67;41.92;100057.91;4916701;29;20127;-83
2021/07/10 00:52:27;;;;;;;2.15;0.70;;;;;;;23.76;41.30;100059.56;4916955;29;20140;-83
2021/07/10 00:54:55;;;;;;;3.22;0.70;;;;;;;23.60;41.39;100056.03;4916530;29;20157;-83
2021/07/10 00:57:22;;;;;;;3.65;1.17;;;;;;;23.57;41.35;100059.03;4924766;29;20119;-83
2021/07/10 00:59:49;;;;;;;3.05;0.88;;;;;;;23.61;42.05;100052.38;4916620;29;20050;-83
2021/07/10 01:02:16;;;;;;;1.20;0.90;;;;;;;23.67;42.34;100049.09;4916749;29;20060;-82
2021/07/10 01:04:44;;;;;;;1.25;1.10;;;;;;;23.64;41.52;100052.06;4927950;29;20039;-83
2021/07/10 01:07:10;;;;;;;1.42;0.90;;;;;;;23.77;41.94;100047.91;4919135;29;20046;-83
2021/07/10 01:09:37;;;;;;;4.40;1.27;;;;;;;23.60;41.80;100050.72;4916230;29;20093;-83
2021/07/10 01:12:05;;;;;;;3.20;0.98;;;;;;;23.45;42.00;100046.03;4916655;29;20087;-84
2021/07/10 01:14:32;;;;;;;2.05;0.80;;;;;;;23.44;41.89;100038.22;4916489;29;20052;-83
2021/07/10 01:16:59;;;;;;;3.53;0.88;;;;;;;23.55;42.00;100034.41;4930935;29;20406;-83
2021/07/10 01:19:27;;;;;;;0.90;0.80;;;;;;;23.53;41.65;100038.06;4917464;29;20044;-83
2021/07/10 01:21:55;;;;;;;2.33;0.90;;;;;;;23.63;41.95;100037.09;4916144;29;20048;-83
2021/07/10 01:24:23;;;;;;;0.85;0.85;;;;;;;23.46;42.01;100034.41;4928526;29;20048;-84
2021/07/10 01:26:50;;;;;;;1.65;0.95;;;;;;;23.42;41.99;100035.72;4916154;29;20464;-84
2021/07/10 01:29:17;;;;;;;2.25;1.17;;;;;;;23.43;42.34;100029.41;4930615;29;20048;-84
2021/07/10 01:31:45;;;;;;;0.98;0.75;;;;;;;23.44;42.19;100025.75;4918236;29;20056;-84
2021/07/10 01:34:13;;;;;;;1.20;0.90;;;;;;;23.45;42.10;100027.41;4935355;29;20460;-84
2021/07/10 01:36:41;;;;;;;4.70;1.45;;;;;;;23.49;42.74;100034.09;4919771;29;20511;-83
2021/07/10 01:39:08;;;;;;;9.57;1.33;;;;;;;23.56;42.22;100036.06;4916442;29;20044;-84
2021/07/10 01:41:42;;;;;;;5.70;1.00;;;;;;;23.43;42.18;100034.72;4934703;29;20131;-83
2021/07/10 01:44:09;;;;;;;1.17;0.77;;;;;;;23.35;42.75;100031.22;4939120;29;20083;-83
2021/07/10 01:46:36;;;;;;;2.63;1.02;;;;;;;23.45;42.60;100031.91;4926883;29;20040;-82
2021/07/10 01:49:03;;;;;;;1.33;0.82;;;;;;;23.28;42.31;100028.41;4920021;29;20044;-82
2021/07/10 01:51:30;;;;;;;0.88;0.88;;;;;;;23.29;42.33;100027.41;4929447;29;20044;-82
2021/07/10 01:53:57;;;;;;;2.35;0.95;;;;;;;23.32;42.61;100024.41;4919781;29;20494;-82
2021/07/10 01:56:24;;;;;;;2.35;0.80;;;;;;;23.33;42.83;100030.53;4922895;29;20070;-82
2021/07/10 01:58:51;;;;;;;2.03;1.17;;;;;;;23.42;42.44;100026.91;4935009;29;20078;-82
2021/07/10 02:01:18;;;;;;;2.97;0.80;;;;;;;23.36;42.51;100022.25;4920051;29;20507;-82
2021/07/10 02:03:46;;;;;;;2.33;1.30;;;;;;;23.32;42.82;100024.41;4919904;29;20447;-83
2021/07/10 02:06:13;;;;;;;1.23;0.88;;;;;;;23.35;42.65;100026.75;4927612;29;20067;-82
2021/07/10 02:08:40;;;;;;;1.67;0.98;;;;;;;23.31;42.54;100025.41;4939119;29;20039;-83
2021/07/10 02:11:07;;;;;;;3.67;1.73;;;;;;;23.22;42.99;100031.69;4921108;29;20044;-82
2021/07/10 02:13:36;;;;;;;1.23;0.88;;;;;;;23.20;43.00;100028.38;4919617;29;20056;-84
2021/07/10 02:16:04;;;;;;;1.92;1.10;;;;;;;23.01;43.61;100026.84;4934400;29;20079;-85
2021/07/10 02:18:31;;;;;;;3.90;1.02;;;;;;;23.07;43.91;100017.41;4939097;29;20115;-85
2021/07/10 02:20:58;;;;;;;0.95;0.80;;;;;;;23.07;43.56;100017.41;4921680;29;20477;-84
2021/07/10 02:23:25;;;;;;;1.30;1.20;;;;;;;22.96;43.50;100027.34;4934360;29;20048;-85
2021/07/10 02:25:52;;;;;;;4.80;0.95;;;;;;;23.02;43.61;100020.53;4919376;29;20044;-83
2021/07/10 02:28:19;;;;;;;3.13;1.08;;;;;;;23.04;43.76;100023.84;4921877;29;20040;-83
2021/07/10 02:30:46;;;;;;;3.33;1.15;;;;;;;23.02;43.86;100012.56;4919150;29;20058;-84
2021/07/10 02:33:15;;;;;;;3.90;1.13;;;;;;;23.13;43.33;100008.75;4918968;29;20066;-86
2021/07/10 02:35:44;;;;;;;1.10;0.98;;;;;;;23.21;43.05;100014.09;4919295;29;20041;-86
2021/07/10 02:38:11;;;;;;;6.13;1.42;;;;;;;23.12;43.30;100020.41;4918799;29;20123;-85
2021/07/10 02:40:38;;;;;;;2.83;1.02;;;;;;;22.97;43.60;100009.56;4931618;29;20032;-86
2021/07/10 02:43:05;;;;;;;1.52;1.13;;;;;;;22.97;43.34;100010.38;4918901;29;20055;-86
2021/07/10 02:45:33;;;;;;;1.58;1.20;;;;;;;23.07;43.69;100012.09;4930926;29;20052;-86
2021/07/10 02:48:01;;;;;;;4.78;1.10;;;;;;;23.12;43.52;100015.09;4929538;29;20177;-85
2021/07/10 02:50:28;;;;;;;1.73;1.10;;;;;;;23.14;43.10;100013.91;4919320;29;20379;-87
2021/07/10 02:52:55;;;;;;;1.25;1.15;;;;;;;23.12;42.96;100013.25;4935168;29;20356;-86
2021/07/10 02:55:24;;;;;;;2.47;1.45;;;;;;;23.14;43.21;100011.25;4925889;29;20044;-87
2021/07/10 02:57:51;;;;;;;0.98;0.88;;;;;;;23.07;43.45;100007.59;4919444;29;20186;-87
2021/07/10 03:00:20;;;;;;;3.28;0.95;;;;;;;23.27;43.30;100008.09;4927697;29;20078;-86
2021/07/10 03:02:47;;;;;;;3.67;1.10;;;;;;;22.96;44.00;100013.22;4942117;29;20047;-87
2021/07/10 03:05:15;;;;;;;1.30;1.20;;;;;;;23.14;43.05;100007.75;4946114;29;20040;-83
2021/07/10 03:07:44;;;;;;;2.20;1.30;;;;;;;23.13;43.62;100011.44;4921988;29;20076;-84
2021/07/10 03:10:17;;;;;;;3.47;0.82;;;;;;;22.96;43.48;100008.72;4918448;29;20044;-84
2021/07/10 03:12:45;;;;;;;1.75;0.75;;;;;;;22.95;44.05;100015.00;4918680;29;20080;-85
2021/07/10 03:15:15;;;;;;;2.97;0.90;;;;;;;23.04;43.73;100021.19;4918590;29;20131;-84
2021/07/10 03:17:46;;;;;;;2.75;0.90;;;;;;;22.91;43.51;100024.31;4918830;29;20048;-84
2021/07/10 03:20:14;;;;;;;2.05;1.10;;;;;;;23.06;43.50;100018.38;4917963;29;20071;-83
2021/07/10 03:22:42;;;;;;;2.08;1.00;;;;;;;23.00;43.53;100015.34;4926170;29;20452;-84
2021/07/10 03:25:11;;;;;;;5.93;1.17;;;;;;;22.86;43.97;100023.94;4918597;29;20044;-82
2021/07/10 03:27:38;;;;;;;2.35;1.00;;;;;;;22.87;43.92;100022.13;4919441;29;20148;-83
2021/07/10 03:30:08;;;;;;;1.20;0.90;;;;;;;22.82;43.94;100021.78;4933521;29;20043;-83
2021/07/10 03:32:35;;;;;;;11.68;1.13;;;;;;;22.52;44.49;100017.81;4930004;29;20044;-83
2021/07/10 03:35:03;;;;;;;1.35;0.90;;;;;;;22.61;44.36;100022.19;4928592;29;20046;-83
2021/07/10 03:37:29;;;;;;;1.00;0.90;;;;;;;22.70;44.21;100024.72;4932967;29;20154;-82
2021/07/10 03:39:56;;;;;;;1.65;1.20;;;;;;;22.81;43.94;100028.09;4933407;29;20522;-82
2021/07/10 03:42:23;;;;;;;1.33;0.82;;;;;;;22.96;43.51;100026.50;4933819;29;20040;-83
2021/07/10 03:44:50;;;;;;;1.40;0.93;;;;;;;22.77;43.89;100024.06;4933371;29;20040;-83
2021/07/10 03:47:17;;;;;;;2.95;1.00;;;;;;;22.82;43.77;100027.09;4933805;29;20122;-82
2021/07/10 03:49:44;;;;;;;1.98;1.13;;;;;;;22.94;43.74;100025.81;4925525;29;20044;-83
2021/07/10 03:52:10;;;;;;;0.85;0.80;;;;;;;22.87;44.39;100022.94;4932756;29;20122;-83
2021/07/10 03:54:37;;;;;;;3.10;1.02;;;;;;;22.70;43.95;100023.88;4936354;29;20206;-82
2021/07/10 03:57:05;;;;;;;1.70;1.00;;;;;;;22.72;44.10;100029.88;4935881;29;20039;-83
2021/07/10 03:59:33;;;;;;;2.80;1.05;;;;;;;22.78;44.27;100025.72;4933436;29;20048;-82
2021/07/10 04:02:00;;;;;;;6.40;1.48;;;;;;;22.78;44.67;100026.56;4933519;29;20100;-82
2021/07/10 04:04:27;;;;;;;1.60;1.10;;;;;;;22.95;44.08;100030.97;4933150;29;20051;-82
2021/07/10 04:06:54;;;;;;;2.38;1.55;;;;;;;23.07;43.65;100039.50;4935103;29;20139;-83
2021/07/10 04:09:24;;;;;;;1.02;0.90;;;;;;;23.18;43.46;100035.69;4934211;29;20067;-83
2021/07/10 04:11:51;;;;;;;4.82;1.13;;;;;;;23.28;43.12;100036.38;4933253;29;20130;-83
2021/07/10 04:14:19;;;;;;;3.67;1.17;;;;;;;23.29;43.30;100038.03;4934436;29;20051;-82
2021/07/10 04:16:46;;;;;;;4.45;1.10;;;;;;;23.24;42.55;100038.53;4935018;29;20146;-81
2021/07/10 04:19:12;;;;;;;3.15;1.20;;;;;;;23.32;43.28;100031.56;4934634;29;20047;-82
2021/07/10 04:21:39;;;;;;;3.15;0.88;;;;;;;23.21;43.68;100036.19;4931923;29;20398;-83
2021/07/10 04:24:06;;;;;;;0.80;0.80;;;;;;;23.40;43.07;100034.22;4931741;29;20138;-82
2021/07/10 04:26:33;;;;;;;2.03;0.80;;;;;;;23.40;43.13;100037.72;4935295;29;20043;-83
2021/07/10 04:29:00;;;;;;;2.00;1.33;;;;;;;23.43;42.83;100040.03;4933464;29;20586;-82
2021/07/10 04:31:27;;;;;;;4.25;1.63;;;;;;;23.45;42.97;100039.91;4934668;29;20601;-82
2021/07/10 04:33:55;;;;;;;0.73;0.73;;;;;;;23.75;42.37;100044.56;4934203;29;20052;-82
2021/07/10 04:36:21;;;;;;;3.35;1.60;;;;;;;23.81;42.01;100048.44;4934023;29;20126;-82
2021/07/10 04:38:48;;;;;;;2.88;1.38;;;;;;;23.99;41.46;100040.25;4934912;29;20094;-82
2021/07/10 04:41:15;;;;;;;0.88;0.80;;;;;;;24.12;41.45;100037.06;4934901;29;20043;-82
2021/07/10 04:43:42;;;;;;;2.60;1.25;;;;;;;24.17;41.02;100038.22;4928448;29;20407;-83
2021/07/10 04:46:11;;;;;;;6.00;0.90;;;;;;;24.25;40.82;100040.03;4931953;29;20167;-83
2021/07/10 04:48:38;;;;;;;1.95;0.90;;;;;;;24.42;40.62;100048.84;4931754;29;20054;-83
2021/07/10 04:51:05;;;;;;;3.20;1.13;;;;;;;24.49;40.61;100037.31;4934464;29;20043;-84
2021/07/10 04:53:32;;;;;;;3.33;1.17;;;;;;;24.58;40.58;100034.66;4930755;29;20502;-84
2021/07/10 04:55:59;;;;;;;1.75;0.93;;;;;;;24.55;40.50;100036.66;4931718;29;20458;-84
2021/07/10 04:58:28;;;;;;;2.33;0.80;;;;;;;24.66;40.52;100026.59;4933576;29;20432;-84
2021/07/10 05:00:55;;;;;;;1.00;0.90;;;;;;;24.80;40.28;100033.88;4934443;29;20050;-85
2021/07/10 05:03:22;;;;;;;8.93;1.13;;;;;;;24.92;39.93;100031.66;4931601;29;20465;-84
2021/07/10 05:05:49;;;;;;;4.55;0.90;;;;;;;25.10;39.76;100034.09;4933522;29;20056;-85
2021/07/10 05:08:16;;;;;;;0.93;0.90;;;;;;;25.11;39.97;100043.75;4934721;29;20039;-85
2021/07/10 05:10:44;;;;;;;4.47;1.30;;;;;;;25.60;39.70;100038.91;4934340;29;20051;-85
2021/07/10 05:13:11;;;;;;;1.80;0.80;;;;;;;25.54;39.26;100043.13;4929392;29;20406;-84
2021/07/10 05:15:38;;;;;;;5.72;1.52;;;;;;;26.11;38.68;100050.69;4931488;29;20103;-83
2021/07/10 05:18:06;;;;;;;3.13;1.25;;;;;;;25.68;39.21;100054.06;4927408;29;20051;-82
2021/07/10 05:20:33;;;;;;;4.40;1.30;;;;;;;26.16;39.16;100049.31;4933085;29;20048;-83
2021/07/10 05:23:00;;;;;;;4.63;1.10;;;;;;;26.40;38.60;100059.72;4925703;29;20043;-82
2021/07/10 05:25:27;;;;;;;5.30;1.30;;;;;;;26.52;38.68;100057.47;4933706;29;20043;-83
2021/07/10 05:27:54;;;;;;;4.20;1.10;;;;;;;26.66;38.61;100053.13;4932218;29;20043;-83
2021/07/10 05:30:21;;;;;;;2.92;1.30;;;;;;;26.57;38.71;100061.22;4931656;29;20044;-83
2021/07/10 05:32:48;;;;;;;5.25;1.33;;;;;;;26.34;38.95;100060.47;4932524;29;20142;-83
2021/07/10 05:35:18;;;;;;;3.60;1.17;;;;;;;26.18;39.93;100060.63;4927852;29;20123;-83
2021/07/10 05:37:47;;;;;;;2.35;1.25;;;;;;;26.40;39.42;100065.06;4931804;29;20363;-84
2021/07/10 05:40:15;;;;;;;5.32;0.82;;;;;;;26.69;37.96;100064.28;4930372;29;20139;-83
2021/07/10 05:42:42;;;;;;;9.93;2.45;;;;;;;26.56;36.17;100069.44;4932066;29;20067;-82
2021/07/10 05:45:09;;;;;;;0.85;0.60;;;;;;;26.91;35.23;100073.22;4929907;29;20039;-81
2021/07/10 05:47:36;;;;;;;4.88;1.42;;;;;;;27.00;35.69;100076.59;4932777;29;20506;-82
2021/07/10 05:50:04;;;;;;;2.67;1.17;;;;;;;26.83;36.07;100067.94;4931292;29;20048;-81
2021/07/10 05:52:31;;;;;;;4.20;0.85;;;;;;;26.77;35.42;100079.41;4932051;29;20044;-80
2021/07/10 05:54:58;;;;;;;1.58;0.80;;;;;;;26.75;35.25;100078.75;4931552;29;20040;-82
2021/07/10 05:57:25;;;;;;;1.98;1.25;;;;;;;26.91;35.02;100078.56;4932808;29;20434;-82
2021/07/10 05:59:52;;;;;;;1.90;0.90;;;;;;;26.90;35.06;100087.59;4931239;29;20047;-85
2021/07/10 06:02:19;;;;;;;1.00;0.70;;;;;;;26.74;35.38;100085.09;4931898;29;20091;-85
2021/07/10 06:04:46;;;;;;;3.95;1.00;;;;;;;27.23;35.12;100087.19;4931669;29;20071;-84
2021/07/10 06:07:13;;;;;;;1.50;0.75;;;;;;;27.29;34.83;100087.28;4932927;29;20094;-84
2021/07/10 06:09:40;;;;;;;4.80;1.10;;;;;;;27.33;34.65;100093.91;4932079;29;20050;-87
2021/07/10 06:12:07;;;;;;;1.90;0.95;;;;;;;27.29;35.87;100097.16;4931909;29;20087;-88
2021/07/10 06:14:34;;;;;;;1.45;0.70;;;;;;;27.20;34.82;100099.09;4929077;29;20142;-84
2021/07/10 06:17:01;;;;;;;2.72;0.98;;;;;;;27.53;34.97;100099.44;4930330;29;20047;-85
2021/07/10 06:19:28;;;;;;;4.45;1.05;;;;;;;26.90;36.39;100101.81;4929476;29;20550;-88
2021/07/10 06:21:55;;;;;;;2.25;1.42;;;;;;;26.98;37.06;100106.22;4931426;29;20083;-84
2021/07/10 06:24:23;;;;;;;3.58;1.25;;;;;;;27.18;36.23;100100.31;4931246;29;20050;-85
2021/07/10 06:26:50;;;;;;;2.50;1.13;;;;;;;27.44;36.21;100097.94;4930519;29;20136;-82
2021/07/10 06:29:21;;;;;;;1.88;1.08;;;;;;;27.16;37.21;100103.16;4933644;29;20479;-84
2021/07/10 06:31:48;;;;;;;2.97;1.20;;;;;;;27.29;36.22;100102.50;4932871;29;20519;-87
2021/07/10 06:34:15;;;;;;;6.10;1.13;;;;;;;27.48;35.84;100098.38;4928963;29;20055;-81
2021/07/10 06:36:42;;;;;;;3.08;1.05;;;;;;;26.93;36.20;100107.78;4923349;29;20131;-83
2021/07/10 06:39:09;;;;;;;5.20;1.17;;;;;;;26.94;36.42;100099.56;4928607;29;20127;-83
2021/07/10 06:41:37;;;;;;;4.85;0.73;;;;;;;27.24;35.98;100099.56;4927290;29;20076;-84
2021/07/10 06:44:05;;;;;;;1.02;0.90;;;;;;;26.86;35.88;100102.34;4929770;29;20046;-84
2021/07/10 06:46:32;;;;;;;1.67;0.82;;;;;;;26.88;36.02;100105.66;4929757;29;20071;-84
2021/07/10 06:48:59;;;;;;;2.53;1.33;;;;;;;26.62;36.32;100106.97;4922848;29;20048;-84
2021/07/10 06:51:26;;;;;;;1.02;1.00;;;;;;;26.53;36.62;100102.72;4922022;29;20036;-83
2021/07/10 06:53:53;;;;;;;4.43;0.90;;;;;;;26.80;36.86;100111.97;4925836;29;20048;-82
2021/07/10 06:56:20;;;;;;;4.43;1.02;;;;;;;26.84;36.02;100109.72;4919204;29;20047;-82
2021/07/10 06:58:47;;;;;;;2.13;1.08;;;;;;;26.22;37.48;100121.53;4930759;29;20135;-83
2021/07/10 07:01:16;;;;;;;5.18;0.90;;;;;;;26.15;38.11;100103.72;4927893;29;20054;-81
2021/07/10 07:03:43;;;;;;;3.85;1.23;;;;;;;26.08;37.59;100101.78;4925323;29;20103;-82
2021/07/10 07:06:10;;;;;;;10.32;1.70;;;;;;;26.67;36.50;100103.72;4934833;29;20068;-82
2021/07/10 07:08:37;;;;;;;3.95;1.23;;;;;;;26.42;36.76;100108.53;4932078;29;20036;-83
2021/07/10 07:11:04;;;;;;;1.63;1.27;;;;;;;26.15;37.69;100103.72;4934375;29;20483;-82
2021/07/10 07:13:30;;;;;;;8.38;1.48;;;;;;;26.26;37.24;100101.47;4935409;29;20403;-83
2021/07/10 07:15:58;;;;;;;1.77;1.10;;;;;;;26.55;36.48;100105.22;4942299;29;20068;-82
2021/07/10 07:18:24;;;;;;;4.88;1.45;;;;;;;26.68;36.67;100107.22;4936458;28;20054;-84
2021/07/10 07:21:05;;;;;;;2.08;0.90;;;;;;;26.36;37.74;100106.53;4930406;29;20047;-82
2021/07/10 07:23:33;;;;;;;2.15;1.35;;;;;;;26.21;37.37;100113.72;4926805;29;20036;-81
2021/07/10 07:26:00;;;;;;;1.77;1.00;;;;;;;26.28;37.70;100104.78;4932020;29;20098;-81
2021/07/10 07:28:27;;;;;;;4.63;1.38;;;;;;;26.19;38.23;100107.72;4926692;29;20044;-81
2021/07/10 07:30:55;;;;;;;2.80;1.17;;;;;;;26.18;38.47;100104.22;4929744;29;20048;-81
2021/07/10 07:33:22;;;;;;;4.40;1.10;;;;;;;26.04;38.75;100105.81;4926307;29;20050;-81
2021/07/10 07:35:49;;;;;;;5.88;1.42;;;;;;;26.34;38.24;100101.38;4929646;29;20052;-82
2021/07/10 07:38:15;;;;;;;4.22;2.05;;;;;;;26.22;38.39;100102.84;4931175;29;20054;-81
2021/07/10 07:40:42;;;;;;;3.08;2.15;;;;;;;26.15;38.61;100106.41;4930185;29;20050;-81
2021/07/10 07:43:09;;;;;;;2.10;1.60;;;;;;;25.60;39.94;100105.66;4930659;29;20036;-80
2021/07/10 07:45:36;;;;;;;1.42;1.30;;;;;;;25.79;39.88;100102.53;4928756;29;20052;-80
2021/07/10 07:48:04;;;;;;;2.85;1.42;;;;;;;26.12;39.82;100104.94;4930858;29;20069;-81
2021/07/10 07:50:31;;;;;;;2.05;1.60;;;;;;;25.82;40.23;100099.50;4933065;29;20048;-80
2021/07/10 07:52:58;;;;;;;3.55;1.30;;;;;;;26.21;40.01;100103.88;4927522;29;20070;-81
2021/07/10 07:55:25;;;;;;;2.53;1.20;;;;;;;25.74;40.34;100102.25;4931504;29;20565;-81
2021/07/10 07:57:52;;;;;;;2.38;1.67;;;;;;;25.70;40.73;100098.22;4928514;29;20491;-81
2021/07/10 08:00:22;;;;;;;1.80;1.40;;;;;;;25.85;40.31;100099.16;4932826;29;20111;-81
2021/07/10 08:02:53;;;;;;;5.47;2.08;;;;;;;25.77;40.81;100101.03;4928617;29;20123;-81
2021/07/10 08:05:20;;;;;;;4.57;2.45;;;;;;;25.90;40.48;100098.63;4934750;29;20058;-80
2021/07/10 08:07:47;;;;;;;3.85;1.98;;;;;;;25.91;40.61;100102.94;4930148;29;20047;-82
2021/07/10 08:10:16;;;;;;;4.80;1.75;;;;;;;25.75;40.73;100100.41;4930074;29;20058;-80
2021/07/10 08:12:47;;;;;;;4.07;1.67;;;;;;;25.95;40.47;100098.91;4931805;29;20472;-81
2021/07/10 08:15:16;;;;;;;2.50;1.83;;;;;;;26.04;40.39;100097.81;4920613;29;20059;-78
2021/07/10 08:17:45;;;;;;;6.22;1.85;;;;;;;26.28;40.06;100106.63;4929942;29;20150;-78
2021/07/10 08:20:13;;;;;;;3.53;2.13;;;;;;;26.02;40.69;100099.84;4922805;29;20092;-81
2021/07/10 08:22:40;;;;;;;2.83;2.08;;;;;;;25.39;41.49;100095.59;4930490;29;20661;-82
2021/07/10 08:25:08;;;;;;;2.28;1.80;;;;;;;25.49;40.79;100095.38;4931259;29;20372;-87
2021/07/10 08:27:39;;;;;;;4.25;2.28;;;;;;;25.46;41.31;100096.56;4932649;29;20054;-82
2021/07/10 08:30:08;;;;;;;5.68;2.30;;;;;;;25.85;40.62;100093.81;4929938;29;20121;-85
2021/07/10 08:32:35;;;;;;;3.58;1.67;;;;;;;25.92;40.55;100093.91;4926045;29;20048;-81
2021/07/10 08:35:03;;;;;;;3.22;2.00;;;;;;;25.72;40.37;100098.03;4929875;29;20057;-82
2021/07/10 08:37:30;;;;;;;3.38;1.77;;;;;;;26.25;39.92;100093.63;4930011;29;20063;-81
2021/07/10 08:39:57;;;;;;;2.60;1.77;;;;;;;25.74;40.71;100096.91;4931880;29;20056;-85
2021/07/10 08:42:24;;;;;;;4.50;1.90;;;;;;;25.97;40.28;100096.06;4927512;29;20161;-84
2021/07/10 08:44:52;;;;;;;8.43;1.55;;;;;;;26.19;39.92;100105.03;4932178;29;20044;-84
2021/07/10 08:47:20;;;;;;;3.33;1.40;;;;;;;26.07;39.63;100101.97;4930365;29;20049;-85
2021/07/10 08:49:48;;;;;;;2.53;1.35;;;;;;;26.07;39.41;100091.28;4928921;29;20050;-81
2021/07/10 08:52:15;;;;;;;4.35;1.23;;;;;;;26.15;39.47;100095.72;4931173;29;20040;-82
2021/07/10 08:54:43;;;;;;;2.40;1.50;;;;;;;26.05;39.43;100094.16;4933110;29;20103;-84
2021/07/10 08:57:13;;;;;;;4.28;1.48;;;;;;;26.13;39.26;100098.56;4929308;29;20045;-85
2021/07/10 08:59:40;;;;;;;4.35;1.55;;;;;;;26.26;38.81;100106.81;4931027;29;20039;-87
2021/07/10 09:02:08;;;;;;;2.38;1.27;;;;;;;26.10;38.99;100099.78;4928543;29;20048;-89
2021/07/10 09:04:35;;;;;;;3.55;1.40;;;;;;;26.11;38.82;100093.44;4926919;29;20213;-89
2021/07/10 09:07:02;;;;;;;4.50;2.17;;;;;;;25.89;39.78;100104.13;4929193;29;20071;-87
2021/07/10 09:09:47;;;;;;;2.50;1.23;;;;;;;26.31;38.75;100103.56;4925866;29;20269;-90
2021/07/10 09:12:27;;;;;;;3.42;1.50;;;;;;;26.40;38.81;100094.47;4928488;29;20043;-88
2021/07/10 09:14:54;;;;;;;5.95;1.63;;;;;;;26.32;38.84;100095.41;4931436;29;20143;-87
2021/07/10 09:17:26;;;;;;;3.70;1.50;;;;;;;26.38;38.18;100096.50;4931489;29;20052;-87
2021/07/10 09:19:54;;;;;;;4.68;2.75;;;;;;;26.27;38.64;100087.09;4930831;29;20055;-88
2021/07/10 09:22:30;;;;;;;1.60;1.23;;;;;;;26.60;37.14;100090.28;4928339;29;20446;-86
2021/07/10 09:24:58;;;;;;;5.15;1.80;;;;;;;26.81;37.75;100084.19;4932965;29;20071;-85
2021/07/10 09:27:25;;;;;;;4.70;1.70;;;;;;;26.64;38.03;100082.72;4931129;29;20051;-87
2021/07/10 09:29:55;;;;;;;5.00;2.03;;;;;;;26.91;37.74;100083.91;4931078;29;20392;-88
2021/07/10 09:32:24;;;;;;;4.40;1.70;;;;;;;26.81;37.90;100083.38;4931867;29;20040;-89
2021/07/10 09:34:54;;;;;;;3.28;1.42;;;;;;;26.97;38.34;100079.66;4934462;29;20055;-90
2021/07/10 09:37:26;;;;;;;3.00;1.90;;;;;;;27.03;38.40;100082.41;4923219;29;20419;-89
2021/07/10 09:40:12;;;;;;;2.08;1.77;;;;;;;27.12;38.21;100083.16;4936264;28;20044;-88
2021/07/10 09:42:45;;;;;;;3.85;2.00;;;;;;;26.98;38.34;100074.13;4927769;29;20036;-84
2021/07/10 09:45:20;;;;;;;5.60;1.92;;;;;;;27.08;38.66;100074.69;4931648;29;20039;-93
2021/07/10 09:47:47;;;;;;;6.28;1.70;;;;;;;26.90;38.49;100072.38;4934362;29;20132;-91
2021/07/10 09:50:25;;;;;;;10.93;2.60;;;;;;;26.69;38.69;100082.19;4933876;29;20058;-90
2021/07/10 09:52:52;;;;;;;4.40;2.30;;;;;;;26.84;38.24;100073.09;4928917;29;20381;-88
2021/07/10 09:55:19;;;;;;;7.03;2.00;;;;;;;26.98;38.32;100067.94;4934125;29;20126;-92
2021/07/10 09:57:47;;;;;;;5.40;1.77;;;;;;;27.39;38.22;100065.56;4932218;29;20397;-90
2021/07/10 10:00:16;;;;;;;3.72;1.92;;;;;;;27.28;37.99;100068.72;4931821;29;20054;-90
2021/07/10 10:02:45;;;;;;;5.10;1.95;;;;;;;27.20;38.73;100058.13;4929433;29;20071;-89
2021/07/10 10:05:13;;;;;;;2.20;1.20;;;;;;;27.22;38.36;100058.75;4918484;29;20055;-87
2021/07/10 10:07:52;;;;;;;8.23;2.08;;;;;;;27.26;38.68;100066.22;4931859;29;20050;-89
2021/07/10 10:10:26;;;;;;;4.43;2.10;;;;;;;27.17;37.95;100066.56;4932508;29;20048;-84
2021/07/10 10:13:05;;;;;;;9.52;1.42;;;;;;;27.58;37.01;100064.91;4949402;28;20058;-87
2021/07/10 10:15:41;;;;;;;4.38;1.38;;;;;;;27.47;36.20;100054.72;4934467;29;20044;-88
2021/07/10 10:18:10;;;;;;;2.50;1.13;;;;;;;27.52;36.05;100054.13;4936958;29;20111;-87
2021/07/10 10:20:38;;;;;;;3.25;1.58;;;;;;;27.59;36.95;100049.66;4932482;29;20041;-89
2021/07/10 10:23:06;;;;;;;5.55;1.27;;;;;;;27.78;36.46;100051.75;4933236;29;20039;-88
2021/07/10 10:25:34;;;;;;;7.63;2.00;;;;;;;27.54;37.38;100044.91;4936284;29;20134;-82
2021/07/10 10:28:05;;;;;;;3.15;1.20;;;;;;;27.86;35.47;100035.53;4935991;29;20401;-82
2021/07/10 10:30:34;;;;;;;7.20;1.30;;;;;;;27.80;36.43;100038.13;4933181;29;20092;-83
2021/07/10 10:33:03;;;;;;;4.68;2.17;;;;;;;27.59;36.30;100029.09;4930856;29;20063;-84
2021/07/10 10:35:30;;;;;;;2.15;1.42;;;;;;;27.83;35.15;100032.41;4929305;29;20131;-85
2021/07/10 10:37:57;;;;;;;4.15;1.58;;;;;;;27.49;35.23;100025.91;4935450;29;20048;-85
2021/07/10 10:40:26;;;;;;;3.72;1.27;;;;;;;27.90;35.09;100026.06;4927603;29;20071;-85
2021/07/10 10:42:56;;;;;;;8.32;1.92;;;;;;;27.87;35.01;100020.28;4932230;29;20040;-90
2021/07/10 10:45:35;;;;;;;4.15;1.27;;;;;;;27.67;35.24;100020.09;4926628;29;20518;-85
2021/07/10 10:48:03;;;;;;;2.45;1.20;;;;;;;27.98;34.94;100016.25;4928804;29;20044;-88
2021/07/10 10:50:37;;;;;;;5.97;1.60;;;;;;;28.17;34.06;100012.84;4931570;29;20048;-88
2021/07/10 10:53:06;;;;;;;1.67;1.00;;;;;;;28.07;34.72;99997.16;4934898;29;20062;-89
2021/07/10 10:55:38;;;;;;;2.22;1.20;;;;;;;28.12;34.18;99996.53;4937263;29;20043;-90
2021/07/10 10:58:26;;;;;;;1.67;1.40;;;;;;;28.11;33.62;100002.94;4934694;29;20038;-90
2021/07/10 11:01:09;;;;;;;4.93;1.20;;;;;;;28.32;33.61;100002.03;4923054;29;20071;-90
2021/07/10 11:03:41;;;;;;;3.67;1.83;;;;;;;28.19;33.67;99990.22;4924829;29;20040;-87
2021/07/10 11:06:30;;;;;;;3.00;1.75;;;;;;;28.13;33.63;99988.31;4935294;29;20044;-91
2021/07/10 11:08:58;;;;;;;3.42;1.05;;;;;;;28.17;35.54;99994.91;4934722;29;20509;-90
2021/07/10 11:11:33;;;;;;;7.65;1.30;;;;;;;28.14;33.96;99995.34;4935870;29;20046;-90
2021/07/10 11:14:08;;;;;;;2.00;1.02;;;;;;;28.26;34.65;99995.59;4935257;29;20066;-88
2021/07/10 11:16:55;;;;;;;8.07;1.85;;;;;;;28.48;34.32;99991.00;4936137;29;20051;-89
2021/07/10 11:19:42;;;;;;;5.63;1.40;;;;;;;28.73;33.63;99998.53;4932890;29;20040;-87
2021/07/10 11:22:29;;;;;;;4.20;2.25;;;;;;;28.27;34.30;99988.38;4936220;29;20052;-85
2021/07/10 11:24:56;;;;;;;2.00;1.17;;;;;;;28.28;34.17;99982.81;4938071;29;20078;-89
2021/07/10 11:27:23;;;;;;;2.80;1.52;;;;;;;28.45;33.83;99976.16;4932587;28;20043;-88
2021/07/10 11:30:11;;;;;;;2.40;1.20;;;;;;;28.59;33.83;99971.66;4933858;29;20048;-88
2021/07/10 11:32:43;;;;;;;2.40;1.17;;;;;;;28.71;34.29;99972.75;4947129;29;20039;-92